TimePST,TemperatureF,Dew PointF,Humidity,Sea Level PressureIn,VisibilityMPH,Wind Direction,Wind SpeedMPH,Gust SpeedMPH,PrecipitationIn,Events,Conditions,WindDirDegrees,DateUTC
12:56 AM,46.0,8.1,21,30.22,10.0,West,8.1,-,N/A,,Clear,260,2012-11-13 08:56:00
1:56 AM,43.0,10.0,26,30.21,10.0,WSW,8.1,-,N/A,,Clear,250,2012-11-13 09:56:00
2:56 AM,44.1,10.9,26,30.20,10.0,WSW,8.1,-,N/A,,Clear,250,2012-11-13 10:56:00
3:56 AM,43.0,8.1,24,30.20,10.0,West,5.8,-,N/A,,Clear,270,2012-11-13 11:56:00
4:56 AM,43.0,10.0,26,30.20,10.0,West,5.8,-,N/A,,Clear,260,2012-11-13 12:56:00
5:56 AM,43.0,8.1,24,30.21,10.0,West,4.6,-,N/A,,Clear,260,2012-11-13 13:56:00
6:56 AM,45.0,10.0,24,30.22,10.0,West,5.8,-,N/A,,Clear,260,2012-11-13 14:56:00
7:56 AM,50.0,12.0,22,30.24,10.0,West,5.8,-,N/A,,Partly Cloudy,270,2012-11-13 15:56:00
8:56 AM,59.0,15.1,18,30.23,10.0,Calm,Calm,-,N/A,,Partly Cloudy,0,2012-11-13 16:56:00
9:56 AM,66.9,12.9,12,30.23,10.0,Calm,Calm,-,N/A,,Clear,0,2012-11-13 17:56:00
10:56 AM,72.0,10.9,10,30.21,10.0,Calm,Calm,-,N/A,,Clear,0,2012-11-13 18:56:00
11:56 AM,73.0,6.1,7,30.18,10.0,Variable,3.5,-,N/A,,Clear,0,2012-11-13 19:56:00
12:56 PM,75.9,7.0,7,30.14,10.0,North,5.8,-,N/A,,Clear,350,2012-11-13 20:56:00
1:56 PM,75.9,10.0,8,30.12,10.0,NE,3.5,-,N/A,,Clear,40,2012-11-13 21:56:00
2:56 PM,75.0,12.0,9,30.11,10.0,NE,4.6,-,N/A,,Clear,50,2012-11-13 22:56:00
3:56 PM,75.0,6.1,7,30.10,10.0,Calm,Calm,-,N/A,,Clear,0,2012-11-13 23:56:00
4:56 PM,71.1,9.0,9,30.09,10.0,Calm,Calm,-,N/A,,Clear,0,2012-11-14 00:56:00
5:56 PM,64.0,14.0,14,30.10,10.0,SSW,3.5,-,N/A,,Clear,200,2012-11-14 01:56:00
6:56 PM,55.0,16.0,22,30.10,10.0,Calm,Calm,-,N/A,,Clear,0,2012-11-14 02:56:00
7:56 PM,55.9,23.0,28,30.11,10.0,Calm,Calm,-,N/A,,Clear,0,2012-11-14 03:56:00
8:56 PM,54.0,16.0,22,30.11,10.0,WSW,4.6,-,N/A,,Clear,250,2012-11-14 04:56:00
9:56 PM,50.0,16.0,26,30.11,10.0,West,6.9,-,N/A,,Clear,260,2012-11-14 05:56:00
10:56 PM,48.9,14.0,25,30.12,10.0,West,8.1,-,N/A,,Clear,260,2012-11-14 06:56:00
11:56 PM,48.9,10.9,22,30.12,10.0,West,9.2,-,N/A,,Clear,260,2012-11-14 07:56:00